sensor_id;sensor_type;location;lat;lon;timestamp;P1;durP1;ratioP1;P2;durP2;ratioP2
3916;SDS011;1973;50.518;7.318;2023-09-19T00:00:16;7.80;;;2.07;;
3916;SDS011;1973;50.518;7.318;2023-09-19T00:02:54;4.30;;;1.90;;
3916;SDS011;1973;50.518;7.318;2023-09-19T00:05:26;4.93;;;2.20;;
3916;SDS011;1973;50.518;7.318;2023-09-19T00:07:54;4.60;;;2.33;;
3916;SDS011;1973;50.518;7.318;2023-09-19T00:10:25;3.33;;;1.90;;
3916;SDS011;1973;50.518;7.318;2023-09-19T00:12:53;3.73;;;2.13;;
3916;SDS011;1973;50.518;7.318;2023-09-19T00:15:23;4.27;;;1.90;;
3916;SDS011;1973;50.518;7.318;2023-09-19T00:17:55;4.20;;;1.60;;
3916;SDS011;1973;50.518;7.318;2023-09-19T00:20:22;5.63;;;1.87;;
3916;SDS011;1973;50.518;7.318;2023-09-19T00:22:50;4.17;;;1.97;;
3916;SDS011;1973;50.518;7.318;2023-09-19T00:25:20;7.73;;;2.67;;
3916;SDS011;1973;50.518;7.318;2023-09-19T00:27:47;2.87;;;1.87;;
3916;SDS011;1973;50.518;7.318;2023-09-19T00:30:16;6.93;;;2.40;;
3916;SDS011;1973;50.518;7.318;2023-09-19T00:32:46;4.70;;;2.30;;
3916;SDS011;1973;50.518;7.318;2023-09-19T00:35:13;4.03;;;2.00;;
3916;SDS011;1973;50.518;7.318;2023-09-19T00:37:41;2.33;;;2.13;;
3916;SDS011;1973;50.518;7.318;2023-09-19T00:40:09;9.83;;;1.93;;
3916;SDS011;1973;50.518;7.318;2023-09-19T00:42:42;5.43;;;1.80;;
3916;SDS011;1973;50.518;7.318;2023-09-19T00:45:09;2.83;;;2.47;;
3916;SDS011;1973;50.518;7.318;2023-09-19T00:47:42;3.87;;;2.20;;
3916;SDS011;1973;50.518;7.318;2023-09-19T00:50:12;6.90;;;2.27;;
3916;SDS011;1973;50.518;7.318;2023-09-19T00:52:42;6.67;;;3.03;;
3916;SDS011;1973;50.518;7.318;2023-09-19T00:55:10;5.60;;;2.60;;
3916;SDS011;1973;50.518;7.318;2023-09-19T00:57:38;2.73;;;1.50;;
3916;SDS011;1973;50.518;7.318;2023-09-19T01:00:06;2.90;;;1.63;;
3916;SDS011;1973;50.518;7.318;2023-09-19T01:02:34;2.40;;;1.73;;
3916;SDS011;1973;50.518;7.318;2023-09-19T01:05:01;2.80;;;1.93;;
3916;SDS011;1973;50.518;7.318;2023-09-19T01:07:31;5.83;;;2.40;;
3916;SDS011;1973;50.518;7.318;2023-09-19T01:10:04;3.00;;;1.77;;
3916;SDS011;1973;50.518;7.318;2023-09-19T01:12:36;3.10;;;1.63;;
3916;SDS011;1973;50.518;7.318;2023-09-19T01:15:11;2.40;;;1.50;;
3916;SDS011;1973;50.518;7.318;2023-09-19T01:21:05;2.17;;;1.70;;
3916;SDS011;1973;50.518;7.318;2023-09-19T01:24:16;2.20;;;1.70;;
3916;SDS011;1973;50.518;7.318;2023-09-19T01:29:38;2.73;;;1.67;;
3916;SDS011;1973;50.518;7.318;2023-09-19T01:32:06;3.13;;;1.90;;
3916;SDS011;1973;50.518;7.318;2023-09-19T01:34:54;2.57;;;1.67;;
3916;SDS011;1973;50.518;7.318;2023-09-19T01:37:30;5.57;;;2.03;;
3916;SDS011;1973;50.518;7.318;2023-09-19T01:40:07;3.27;;;2.13;;
3916;SDS011;1973;50.518;7.318;2023-09-19T01:42:41;4.17;;;2.10;;
3916;SDS011;1973;50.518;7.318;2023-09-19T01:45:36;4.03;;;1.80;;
3916;SDS011;1973;50.518;7.318;2023-09-19T01:48:15;5.17;;;2.30;;
3916;SDS011;1973;50.518;7.318;2023-09-19T01:53:41;3.73;;;2.10;;
3916;SDS011;1973;50.518;7.318;2023-09-19T01:56:26;4.73;;;2.00;;
3916;SDS011;1973;50.518;7.318;2023-09-19T01:58:59;5.83;;;2.00;;
3916;SDS011;1973;50.518;7.318;2023-09-19T02:01:32;6.80;;;2.10;;
3916;SDS011;1973;50.518;7.318;2023-09-19T02:04:01;5.43;;;2.07;;
3916;SDS011;1973;50.518;7.318;2023-09-19T02:06:29;3.83;;;2.17;;
3916;SDS011;1973;50.518;7.318;2023-09-19T02:08:55;3.00;;;2.00;;
3916;SDS011;1973;50.518;7.318;2023-09-19T02:11:22;3.43;;;2.13;;
3916;SDS011;1973;50.518;7.318;2023-09-19T02:13:48;2.03;;;1.27;;
3916;SDS011;1973;50.518;7.318;2023-09-19T02:16:20;2.90;;;1.60;;
3916;SDS011;1973;50.518;7.318;2023-09-19T02:18:48;5.97;;;1.67;;
3916;SDS011;1973;50.518;7.318;2023-09-19T02:21:16;4.13;;;1.40;;
3916;SDS011;1973;50.518;7.318;2023-09-19T02:23:44;4.13;;;1.60;;
3916;SDS011;1973;50.518;7.318;2023-09-19T02:26:11;3.80;;;1.70;;
3916;SDS011;1973;50.518;7.318;2023-09-19T02:28:38;4.57;;;1.77;;
3916;SDS011;1973;50.518;7.318;2023-09-19T02:31:05;5.03;;;1.63;;
3916;SDS011;1973;50.518;7.318;2023-09-19T02:33:32;6.57;;;1.80;;
3916;SDS011;1973;50.518;7.318;2023-09-19T02:35:59;3.70;;;1.60;;
3916;SDS011;1973;50.518;7.318;2023-09-19T02:38:27;2.37;;;1.30;;
3916;SDS011;1973;50.518;7.318;2023-09-19T02:40:55;3.43;;;1.53;;
3916;SDS011;1973;50.518;7.318;2023-09-19T02:43:22;3.43;;;1.30;;
3916;SDS011;1973;50.518;7.318;2023-09-19T02:45:49;4.10;;;1.57;;
3916;SDS011;1973;50.518;7.318;2023-09-19T02:48:16;3.47;;;1.77;;
3916;SDS011;1973;50.518;7.318;2023-09-19T02:50:45;4.60;;;1.67;;
3916;SDS011;1973;50.518;7.318;2023-09-19T02:53:12;3.37;;;1.40;;
3916;SDS011;1973;50.518;7.318;2023-09-19T02:55:40;6.50;;;1.60;;
3916;SDS011;1973;50.518;7.318;2023-09-19T02:58:07;6.23;;;1.40;;
3916;SDS011;1973;50.518;7.318;2023-09-19T03:00:41;3.50;;;1.33;;
3916;SDS011;1973;50.518;7.318;2023-09-19T03:03:08;6.50;;;2.00;;
3916;SDS011;1973;50.518;7.318;2023-09-19T03:05:35;3.00;;;1.53;;
3916;SDS011;1973;50.518;7.318;2023-09-19T03:08:04;4.83;;;1.70;;
3916;SDS011;1973;50.518;7.318;2023-09-19T03:10:32;3.93;;;1.80;;
3916;SDS011;1973;50.518;7.318;2023-09-19T03:12:58;4.63;;;1.73;;
3916;SDS011;1973;50.518;7.318;2023-09-19T03:15:26;5.00;;;1.70;;
3916;SDS011;1973;50.518;7.318;2023-09-19T03:17:53;4.97;;;2.13;;
3916;SDS011;1973;50.518;7.318;2023-09-19T03:20:20;3.57;;;1.50;;
3916;SDS011;1973;50.518;7.318;2023-09-19T03:22:47;7.30;;;1.70;;
3916;SDS011;1973;50.518;7.318;2023-09-19T03:25:14;7.33;;;1.93;;
3916;SDS011;1973;50.518;7.318;2023-09-19T03:27:41;3.70;;;1.60;;
3916;SDS011;1973;50.518;7.318;2023-09-19T03:30:08;5.43;;;1.70;;
3916;SDS011;1973;50.518;7.318;2023-09-19T03:32:35;3.57;;;1.60;;
3916;SDS011;1973;50.518;7.318;2023-09-19T03:35:02;5.53;;;1.70;;
3916;SDS011;1973;50.518;7.318;2023-09-19T03:37:31;7.20;;;2.37;;
3916;SDS011;1973;50.518;7.318;2023-09-19T03:39:59;5.30;;;1.70;;
3916;SDS011;1973;50.518;7.318;2023-09-19T03:42:31;5.93;;;2.00;;
3916;SDS011;1973;50.518;7.318;2023-09-19T03:44:57;5.17;;;1.80;;
3916;SDS011;1973;50.518;7.318;2023-09-19T03:47:25;4.90;;;1.80;;
3916;SDS011;1973;50.518;7.318;2023-09-19T03:49:52;4.80;;;1.77;;
3916;SDS011;1973;50.518;7.318;2023-09-19T03:52:19;6.00;;;1.70;;
3916;SDS011;1973;50.518;7.318;2023-09-19T03:54:45;2.73;;;1.80;;
3916;SDS011;1973;50.518;7.318;2023-09-19T03:57:12;3.30;;;1.93;;
3916;SDS011;1973;50.518;7.318;2023-09-19T03:59:42;3.83;;;1.80;;
3916;SDS011;1973;50.518;7.318;2023-09-19T04:02:09;10.47;;;1.83;;
3916;SDS011;1973;50.518;7.318;2023-09-19T04:04:48;5.77;;;2.10;;
3916;SDS011;1973;50.518;7.318;2023-09-19T04:07:15;6.30;;;1.40;;
3916;SDS011;1973;50.518;7.318;2023-09-19T04:09:42;4.43;;;1.63;;
3916;SDS011;1973;50.518;7.318;2023-09-19T04:12:09;3.70;;;1.57;;
3916;SDS011;1973;50.518;7.318;2023-09-19T04:14:35;3.20;;;1.43;;
3916;SDS011;1973;50.518;7.318;2023-09-19T04:17:02;4.87;;;2.03;;
3916;SDS011;1973;50.518;7.318;2023-09-19T04:19:29;5.37;;;1.90;;
3916;SDS011;1973;50.518;7.318;2023-09-19T04:21:56;4.03;;;1.77;;
3916;SDS011;1973;50.518;7.318;2023-09-19T04:24:23;3.83;;;1.60;;
3916;SDS011;1973;50.518;7.318;2023-09-19T04:26:49;4.10;;;2.00;;
3916;SDS011;1973;50.518;7.318;2023-09-19T04:29:16;4.63;;;2.10;;
3916;SDS011;1973;50.518;7.318;2023-09-19T04:31:45;3.47;;;1.30;;
3916;SDS011;1973;50.518;7.318;2023-09-19T04:34:12;4.23;;;2.00;;
3916;SDS011;1973;50.518;7.318;2023-09-19T04:36:42;3.00;;;1.50;;
3916;SDS011;1973;50.518;7.318;2023-09-19T04:39:09;5.77;;;1.70;;
3916;SDS011;1973;50.518;7.318;2023-09-19T04:41:37;3.50;;;1.50;;
3916;SDS011;1973;50.518;7.318;2023-09-19T04:44:05;8.20;;;1.90;;
3916;SDS011;1973;50.518;7.318;2023-09-19T04:46:32;8.87;;;1.83;;
3916;SDS011;1973;50.518;7.318;2023-09-19T04:48:59;6.10;;;1.93;;
3916;SDS011;1973;50.518;7.318;2023-09-19T04:51:25;7.13;;;2.33;;
3916;SDS011;1973;50.518;7.318;2023-09-19T04:53:55;3.03;;;1.83;;
3916;SDS011;1973;50.518;7.318;2023-09-19T04:56:22;6.00;;;1.67;;
3916;SDS011;1973;50.518;7.318;2023-09-19T04:58:49;3.37;;;2.00;;
3916;SDS011;1973;50.518;7.318;2023-09-19T05:01:16;4.73;;;2.00;;
3916;SDS011;1973;50.518;7.318;2023-09-19T05:03:42;4.37;;;1.87;;
3916;SDS011;1973;50.518;7.318;2023-09-19T05:06:10;5.40;;;2.30;;
3916;SDS011;1973;50.518;7.318;2023-09-19T05:08:37;6.40;;;2.00;;
3916;SDS011;1973;50.518;7.318;2023-09-19T05:11:04;3.53;;;1.80;;
3916;SDS011;1973;50.518;7.318;2023-09-19T05:13:32;7.27;;;2.40;;
3916;SDS011;1973;50.518;7.318;2023-09-19T05:16:01;4.20;;;1.83;;
3916;SDS011;1973;50.518;7.318;2023-09-19T05:18:28;5.40;;;1.97;;
3916;SDS011;1973;50.518;7.318;2023-09-19T05:20:55;5.30;;;1.40;;
3916;SDS011;1973;50.518;7.318;2023-09-19T05:23:22;4.90;;;2.17;;
3916;SDS011;1973;50.518;7.318;2023-09-19T05:25:48;7.07;;;2.40;;
3916;SDS011;1973;50.518;7.318;2023-09-19T05:28:15;6.00;;;2.00;;
3916;SDS011;1973;50.518;7.318;2023-09-19T05:30:42;5.83;;;1.77;;
3916;SDS011;1973;50.518;7.318;2023-09-19T05:33:13;3.60;;;1.70;;
3916;SDS011;1973;50.518;7.318;2023-09-19T05:35:40;5.23;;;1.90;;
3916;SDS011;1973;50.518;7.318;2023-09-19T05:38:08;7.30;;;2.10;;
3916;SDS011;1973;50.518;7.318;2023-09-19T05:40:39;6.23;;;2.17;;
3916;SDS011;1973;50.518;7.318;2023-09-19T05:43:09;6.67;;;2.70;;
3916;SDS011;1973;50.518;7.318;2023-09-19T05:45:36;4.03;;;2.10;;
3916;SDS011;1973;50.518;7.318;2023-09-19T05:48:07;7.20;;;2.20;;
3916;SDS011;1973;50.518;7.318;2023-09-19T05:50:36;3.93;;;2.20;;
3916;SDS011;1973;50.518;7.318;2023-09-19T05:53:02;7.90;;;2.70;;
3916;SDS011;1973;50.518;7.318;2023-09-19T05:55:31;3.80;;;2.30;;
3916;SDS011;1973;50.518;7.318;2023-09-19T05:57:58;6.00;;;1.87;;
3916;SDS011;1973;50.518;7.318;2023-09-19T06:00:25;5.90;;;3.10;;
3916;SDS011;1973;50.518;7.318;2023-09-19T06:02:57;4.83;;;2.10;;
3916;SDS011;1973;50.518;7.318;2023-09-19T06:05:25;7.27;;;2.70;;
3916;SDS011;1973;50.518;7.318;2023-09-19T06:07:54;4.17;;;2.27;;
3916;SDS011;1973;50.518;7.318;2023-09-19T06:10:20;5.33;;;2.00;;
3916;SDS011;1973;50.518;7.318;2023-09-19T06:12:49;4.27;;;2.33;;
3916;SDS011;1973;50.518;7.318;2023-09-19T06:15:16;6.50;;;2.67;;
3916;SDS011;1973;50.518;7.318;2023-09-19T06:17:49;4.03;;;2.20;;
3916;SDS011;1973;50.518;7.318;2023-09-19T06:20:16;6.00;;;2.60;;
3916;SDS011;1973;50.518;7.318;2023-09-19T06:22:43;5.13;;;2.20;;
3916;SDS011;1973;50.518;7.318;2023-09-19T06:25:12;7.50;;;2.30;;
3916;SDS011;1973;50.518;7.318;2023-09-19T06:27:46;8.50;;;2.53;;
3916;SDS011;1973;50.518;7.318;2023-09-19T06:30:13;7.93;;;2.80;;
3916;SDS011;1973;50.518;7.318;2023-09-19T06:32:43;6.87;;;2.30;;
3916;SDS011;1973;50.518;7.318;2023-09-19T06:35:11;6.70;;;2.47;;
3916;SDS011;1973;50.518;7.318;2023-09-19T06:37:39;8.70;;;2.50;;
3916;SDS011;1973;50.518;7.318;2023-09-19T06:42:35;9.83;;;2.90;;
3916;SDS011;1973;50.518;7.318;2023-09-19T06:45:04;4.73;;;2.03;;
3916;SDS011;1973;50.518;7.318;2023-09-19T06:47:32;3.50;;;2.07;;
3916;SDS011;1973;50.518;7.318;2023-09-19T06:49:59;5.70;;;2.43;;
3916;SDS011;1973;50.518;7.318;2023-09-19T06:52:28;8.07;;;2.80;;
3916;SDS011;1973;50.518;7.318;2023-09-19T06:54:55;6.57;;;2.60;;
3916;SDS011;1973;50.518;7.318;2023-09-19T06:57:21;6.50;;;2.37;;
3916;SDS011;1973;50.518;7.318;2023-09-19T06:59:48;8.03;;;2.73;;
3916;SDS011;1973;50.518;7.318;2023-09-19T07:02:14;11.13;;;2.70;;
3916;SDS011;1973;50.518;7.318;2023-09-19T07:04:41;9.50;;;2.40;;
3916;SDS011;1973;50.518;7.318;2023-09-19T07:07:08;6.17;;;2.33;;
3916;SDS011;1973;50.518;7.318;2023-09-19T07:09:35;8.27;;;2.50;;
3916;SDS011;1973;50.518;7.318;2023-09-19T07:12:01;8.40;;;2.03;;
3916;SDS011;1973;50.518;7.318;2023-09-19T07:14:31;10.27;;;3.07;;
3916;SDS011;1973;50.518;7.318;2023-09-19T07:16:58;8.37;;;2.30;;
3916;SDS011;1973;50.518;7.318;2023-09-19T07:19:26;11.20;;;2.80;;
3916;SDS011;1973;50.518;7.318;2023-09-19T07:21:57;8.40;;;2.30;;
3916;SDS011;1973;50.518;7.318;2023-09-19T07:24:25;10.03;;;2.70;;
3916;SDS011;1973;50.518;7.318;2023-09-19T07:26:52;8.67;;;2.50;;
3916;SDS011;1973;50.518;7.318;2023-09-19T07:29:19;8.07;;;2.83;;
3916;SDS011;1973;50.518;7.318;2023-09-19T07:31:46;9.47;;;3.13;;
3916;SDS011;1973;50.518;7.318;2023-09-19T07:34:13;11.07;;;2.57;;
3916;SDS011;1973;50.518;7.318;2023-09-19T07:36:40;10.43;;;2.57;;
3916;SDS011;1973;50.518;7.318;2023-09-19T07:39:08;11.30;;;2.70;;
3916;SDS011;1973;50.518;7.318;2023-09-19T07:41:48;7.30;;;2.90;;
3916;SDS011;1973;50.518;7.318;2023-09-19T07:44:16;6.67;;;2.00;;
3916;SDS011;1973;50.518;7.318;2023-09-19T07:46:43;9.03;;;2.70;;
3916;SDS011;1973;50.518;7.318;2023-09-19T07:49:10;7.00;;;2.37;;
3916;SDS011;1973;50.518;7.318;2023-09-19T07:51:37;11.67;;;2.33;;
3916;SDS011;1973;50.518;7.318;2023-09-19T07:54:05;8.70;;;2.77;;
3916;SDS011;1973;50.518;7.318;2023-09-19T07:56:32;7.43;;;2.17;;
3916;SDS011;1973;50.518;7.318;2023-09-19T07:58:58;8.73;;;2.37;;
3916;SDS011;1973;50.518;7.318;2023-09-19T08:01:25;9.60;;;2.53;;
3916;SDS011;1973;50.518;7.318;2023-09-19T08:03:53;11.93;;;2.40;;
3916;SDS011;1973;50.518;7.318;2023-09-19T08:06:20;7.47;;;2.53;;
3916;SDS011;1973;50.518;7.318;2023-09-19T08:08:47;10.87;;;2.77;;
3916;SDS011;1973;50.518;7.318;2023-09-19T08:11:17;7.83;;;2.43;;
3916;SDS011;1973;50.518;7.318;2023-09-19T08:13:47;7.13;;;2.03;;
3916;SDS011;1973;50.518;7.318;2023-09-19T08:16:15;6.10;;;2.40;;
3916;SDS011;1973;50.518;7.318;2023-09-19T08:18:47;10.13;;;2.37;;
3916;SDS011;1973;50.518;7.318;2023-09-19T08:21:14;5.70;;;2.97;;
3916;SDS011;1973;50.518;7.318;2023-09-19T08:23:43;11.63;;;2.63;;
3916;SDS011;1973;50.518;7.318;2023-09-19T08:26:09;6.27;;;2.70;;
3916;SDS011;1973;50.518;7.318;2023-09-19T08:28:36;10.03;;;2.50;;
3916;SDS011;1973;50.518;7.318;2023-09-19T08:31:04;6.70;;;1.90;;
3916;SDS011;1973;50.518;7.318;2023-09-19T08:33:32;6.17;;;2.40;;
3916;SDS011;1973;50.518;7.318;2023-09-19T08:35:59;8.60;;;2.53;;
3916;SDS011;1973;50.518;7.318;2023-09-19T08:38:26;8.17;;;2.60;;
3916;SDS011;1973;50.518;7.318;2023-09-19T08:40:57;8.77;;;2.53;;
3916;SDS011;1973;50.518;7.318;2023-09-19T08:43:25;6.43;;;2.70;;
3916;SDS011;1973;50.518;7.318;2023-09-19T08:46:15;6.47;;;2.80;;
3916;SDS011;1973;50.518;7.318;2023-09-19T08:48:54;11.23;;;2.77;;
3916;SDS011;1973;50.518;7.318;2023-09-19T08:51:51;9.10;;;3.17;;
3916;SDS011;1973;50.518;7.318;2023-09-19T08:54:27;12.20;;;2.90;;
3916;SDS011;1973;50.518;7.318;2023-09-19T08:56:58;9.40;;;3.10;;
3916;SDS011;1973;50.518;7.318;2023-09-19T08:59:31;7.43;;;2.53;;
3916;SDS011;1973;50.518;7.318;2023-09-19T09:02:01;8.27;;;2.17;;
3916;SDS011;1973;50.518;7.318;2023-09-19T09:04:30;6.90;;;2.77;;
3916;SDS011;1973;50.518;7.318;2023-09-19T09:06:57;10.00;;;2.87;;
3916;SDS011;1973;50.518;7.318;2023-09-19T09:09:24;8.07;;;2.73;;
3916;SDS011;1973;50.518;7.318;2023-09-19T09:11:51;4.70;;;1.83;;
3916;SDS011;1973;50.518;7.318;2023-09-19T09:14:20;8.27;;;2.53;;
3916;SDS011;1973;50.518;7.318;2023-09-19T09:16:47;4.63;;;2.50;;
3916;SDS011;1973;50.518;7.318;2023-09-19T09:19:15;5.70;;;2.70;;
3916;SDS011;1973;50.518;7.318;2023-09-19T09:21:51;8.07;;;2.70;;
3916;SDS011;1973;50.518;7.318;2023-09-19T09:24:30;9.30;;;2.53;;
3916;SDS011;1973;50.518;7.318;2023-09-19T09:27:00;10.07;;;2.33;;
3916;SDS011;1973;50.518;7.318;2023-09-19T09:29:42;10.53;;;2.20;;
3916;SDS011;1973;50.518;7.318;2023-09-19T09:32:21;5.97;;;2.27;;
3916;SDS011;1973;50.518;7.318;2023-09-19T09:34:53;5.23;;;2.40;;
3916;SDS011;1973;50.518;7.318;2023-09-19T09:37:27;10.30;;;2.90;;
3916;SDS011;1973;50.518;7.318;2023-09-19T09:39:58;9.90;;;2.83;;
3916;SDS011;1973;50.518;7.318;2023-09-19T09:42:40;5.47;;;2.40;;
3916;SDS011;1973;50.518;7.318;2023-09-19T09:47:47;4.80;;;2.13;;
3916;SDS011;1973;50.518;7.318;2023-09-19T09:50:28;6.50;;;2.40;;
3916;SDS011;1973;50.518;7.318;2023-09-19T09:53:20;8.70;;;2.80;;
3916;SDS011;1973;50.518;7.318;2023-09-19T09:58:51;5.20;;;2.60;;
3916;SDS011;1973;50.518;7.318;2023-09-19T10:01:25;9.60;;;2.57;;
3916;SDS011;1973;50.518;7.318;2023-09-19T10:03:57;7.83;;;2.80;;
3916;SDS011;1973;50.518;7.318;2023-09-19T10:06:24;5.23;;;2.13;;
3916;SDS011;1973;50.518;7.318;2023-09-19T10:09:12;7.37;;;2.80;;
3916;SDS011;1973;50.518;7.318;2023-09-19T10:11:47;5.10;;;2.43;;
3916;SDS011;1973;50.518;7.318;2023-09-19T10:14:24;9.20;;;2.70;;
3916;SDS011;1973;50.518;7.318;2023-09-19T10:16:55;9.00;;;2.63;;
3916;SDS011;1973;50.518;7.318;2023-09-19T10:19:30;5.73;;;2.57;;
3916;SDS011;1973;50.518;7.318;2023-09-19T10:22:04;6.30;;;2.83;;
3916;SDS011;1973;50.518;7.318;2023-09-19T10:24:33;5.53;;;2.10;;
3916;SDS011;1973;50.518;7.318;2023-09-19T10:27:14;9.20;;;2.60;;
3916;SDS011;1973;50.518;7.318;2023-09-19T10:29:42;9.03;;;2.77;;
3916;SDS011;1973;50.518;7.318;2023-09-19T10:32:11;7.03;;;2.70;;
3916;SDS011;1973;50.518;7.318;2023-09-19T10:34:48;5.50;;;2.50;;
3916;SDS011;1973;50.518;7.318;2023-09-19T10:37:16;7.73;;;2.63;;
3916;SDS011;1973;50.518;7.318;2023-09-19T10:39:46;4.43;;;2.30;;
3916;SDS011;1973;50.518;7.318;2023-09-19T10:42:16;5.43;;;2.90;;
3916;SDS011;1973;50.518;7.318;2023-09-19T10:44:47;5.17;;;2.27;;
3916;SDS011;1973;50.518;7.318;2023-09-19T10:47:20;7.60;;;3.30;;
3916;SDS011;1973;50.518;7.318;2023-09-19T10:49:50;5.03;;;2.50;;
3916;SDS011;1973;50.518;7.318;2023-09-19T10:52:19;7.60;;;2.43;;
3916;SDS011;1973;50.518;7.318;2023-09-19T10:54:52;7.07;;;2.87;;
3916;SDS011;1973;50.518;7.318;2023-09-19T10:57:24;5.30;;;2.37;;
3916;SDS011;1973;50.518;7.318;2023-09-19T11:00:00;5.50;;;2.00;;
3916;SDS011;1973;50.518;7.318;2023-09-19T11:06:04;5.90;;;2.13;;
3916;SDS011;1973;50.518;7.318;2023-09-19T11:23:35;4.20;;;2.17;;
3916;SDS011;1973;50.518;7.318;2023-09-19T11:25:43;4.70;;;2.13;;
3916;SDS011;1973;50.518;7.318;2023-09-19T11:30:51;6.03;;;1.97;;
3916;SDS011;1973;50.518;7.318;2023-09-19T11:33:28;6.00;;;2.50;;
3916;SDS011;1973;50.518;7.318;2023-09-19T11:36:01;8.07;;;2.20;;
3916;SDS011;1973;50.518;7.318;2023-09-19T11:41:56;4.40;;;2.13;;
3916;SDS011;1973;50.518;7.318;2023-09-19T11:49:28;7.10;;;2.83;;
3916;SDS011;1973;50.518;7.318;2023-09-19T11:52:00;3.30;;;1.67;;
3916;SDS011;1973;50.518;7.318;2023-09-19T11:54:27;5.20;;;2.30;;
3916;SDS011;1973;50.518;7.318;2023-09-19T11:56:57;8.57;;;2.17;;
3916;SDS011;1973;50.518;7.318;2023-09-19T11:59:26;5.50;;;2.60;;
3916;SDS011;1973;50.518;7.318;2023-09-19T12:01:56;5.80;;;1.70;;
3916;SDS011;1973;50.518;7.318;2023-09-19T12:04:41;6.13;;;2.30;;
3916;SDS011;1973;50.518;7.318;2023-09-19T12:07:15;7.10;;;2.20;;
3916;SDS011;1973;50.518;7.318;2023-09-19T12:09:50;4.93;;;1.80;;
3916;SDS011;1973;50.518;7.318;2023-09-19T12:12:30;4.20;;;1.70;;
3916;SDS011;1973;50.518;7.318;2023-09-19T12:14:59;8.20;;;2.60;;
3916;SDS011;1973;50.518;7.318;2023-09-19T12:17:35;4.00;;;2.00;;
3916;SDS011;1973;50.518;7.318;2023-09-19T12:20:02;4.40;;;2.00;;
3916;SDS011;1973;50.518;7.318;2023-09-19T12:22:42;4.47;;;1.87;;
3916;SDS011;1973;50.518;7.318;2023-09-19T12:25:10;4.00;;;2.13;;
3916;SDS011;1973;50.518;7.318;2023-09-19T12:27:43;3.23;;;1.73;;
3916;SDS011;1973;50.518;7.318;2023-09-19T12:30:16;5.40;;;2.00;;
3916;SDS011;1973;50.518;7.318;2023-09-19T12:32:53;5.90;;;2.10;;
3916;SDS011;1973;50.518;7.318;2023-09-19T12:35:26;6.60;;;2.23;;
3916;SDS011;1973;50.518;7.318;2023-09-19T12:37:57;5.77;;;2.07;;
3916;SDS011;1973;50.518;7.318;2023-09-19T12:40:24;9.80;;;2.47;;
3916;SDS011;1973;50.518;7.318;2023-09-19T12:42:56;4.87;;;1.90;;
3916;SDS011;1973;50.518;7.318;2023-09-19T12:45:29;3.10;;;1.60;;
3916;SDS011;1973;50.518;7.318;2023-09-19T12:51:01;3.57;;;1.80;;
3916;SDS011;1973;50.518;7.318;2023-09-19T12:53:35;5.37;;;2.00;;
3916;SDS011;1973;50.518;7.318;2023-09-19T12:56:11;4.70;;;2.30;;
3916;SDS011;1973;50.518;7.318;2023-09-19T13:01:25;4.80;;;2.27;;
3916;SDS011;1973;50.518;7.318;2023-09-19T13:06:50;8.10;;;2.00;;
3916;SDS011;1973;50.518;7.318;2023-09-19T13:09:18;4.60;;;2.20;;
3916;SDS011;1973;50.518;7.318;2023-09-19T13:11:47;4.23;;;1.80;;
3916;SDS011;1973;50.518;7.318;2023-09-19T13:19:37;5.03;;;1.70;;
3916;SDS011;1973;50.518;7.318;2023-09-19T13:25:13;3.40;;;1.30;;
3916;SDS011;1973;50.518;7.318;2023-09-19T13:27:45;2.60;;;1.90;;
3916;SDS011;1973;50.518;7.318;2023-09-19T13:30:18;4.47;;;1.60;;
3916;SDS011;1973;50.518;7.318;2023-09-19T13:32:45;4.17;;;1.50;;
3916;SDS011;1973;50.518;7.318;2023-09-19T13:35:14;3.37;;;1.43;;
3916;SDS011;1973;50.518;7.318;2023-09-19T13:37:41;3.10;;;1.70;;
3916;SDS011;1973;50.518;7.318;2023-09-19T13:40:10;5.77;;;1.70;;
3916;SDS011;1973;50.518;7.318;2023-09-19T13:42:38;5.93;;;1.80;;
3916;SDS011;1973;50.518;7.318;2023-09-19T13:45:05;5.10;;;1.93;;
3916;SDS011;1973;50.518;7.318;2023-09-19T13:47:32;4.40;;;1.43;;
3916;SDS011;1973;50.518;7.318;2023-09-19T13:49:59;2.90;;;1.60;;
3916;SDS011;1973;50.518;7.318;2023-09-19T13:52:29;7.37;;;2.00;;
3916;SDS011;1973;50.518;7.318;2023-09-19T13:54:57;2.63;;;1.30;;
3916;SDS011;1973;50.518;7.318;2023-09-19T13:57:24;4.40;;;1.83;;
3916;SDS011;1973;50.518;7.318;2023-09-19T13:59:51;6.37;;;1.87;;
3916;SDS011;1973;50.518;7.318;2023-09-19T14:02:21;4.13;;;1.67;;
3916;SDS011;1973;50.518;7.318;2023-09-19T14:04:51;3.40;;;1.47;;
3916;SDS011;1973;50.518;7.318;2023-09-19T14:07:19;3.40;;;1.50;;
3916;SDS011;1973;50.518;7.318;2023-09-19T14:09:46;5.20;;;1.90;;
3916;SDS011;1973;50.518;7.318;2023-09-19T14:12:13;4.67;;;1.57;;
3916;SDS011;1973;50.518;7.318;2023-09-19T14:14:41;5.93;;;2.23;;
3916;SDS011;1973;50.518;7.318;2023-09-19T14:17:08;3.00;;;1.30;;
3916;SDS011;1973;50.518;7.318;2023-09-19T14:19:35;4.40;;;1.50;;
3916;SDS011;1973;50.518;7.318;2023-09-19T14:22:03;3.87;;;1.47;;
3916;SDS011;1973;50.518;7.318;2023-09-19T14:24:34;5.10;;;1.70;;
3916;SDS011;1973;50.518;7.318;2023-09-19T14:27:01;4.33;;;1.70;;
3916;SDS011;1973;50.518;7.318;2023-09-19T14:29:30;2.90;;;1.50;;
3916;SDS011;1973;50.518;7.318;2023-09-19T14:31:58;3.47;;;1.63;;
3916;SDS011;1973;50.518;7.318;2023-09-19T14:34:25;3.10;;;1.67;;
3916;SDS011;1973;50.518;7.318;2023-09-19T14:36:52;1.70;;;1.23;;
3916;SDS011;1973;50.518;7.318;2023-09-19T14:39:20;4.07;;;1.30;;
3916;SDS011;1973;50.518;7.318;2023-09-19T14:41:47;5.50;;;1.60;;
3916;SDS011;1973;50.518;7.318;2023-09-19T14:44:14;3.40;;;1.33;;
3916;SDS011;1973;50.518;7.318;2023-09-19T14:46:42;2.80;;;1.33;;
3916;SDS011;1973;50.518;7.318;2023-09-19T14:49:12;3.97;;;1.47;;
3916;SDS011;1973;50.518;7.318;2023-09-19T14:51:39;5.30;;;1.73;;
3916;SDS011;1973;50.518;7.318;2023-09-19T14:54:10;2.37;;;1.30;;
3916;SDS011;1973;50.518;7.318;2023-09-19T14:56:37;3.73;;;1.43;;
3916;SDS011;1973;50.518;7.318;2023-09-19T14:59:04;3.80;;;1.50;;
3916;SDS011;1973;50.518;7.318;2023-09-19T15:01:30;4.00;;;1.50;;
3916;SDS011;1973;50.518;7.318;2023-09-19T15:03:58;4.13;;;1.57;;
3916;SDS011;1973;50.518;7.318;2023-09-19T15:06:27;3.13;;;1.60;;
3916;SDS011;1973;50.518;7.318;2023-09-19T15:08:54;4.10;;;1.50;;
3916;SDS011;1973;50.518;7.318;2023-09-19T15:11:21;5.50;;;1.83;;
3916;SDS011;1973;50.518;7.318;2023-09-19T15:13:50;5.07;;;1.40;;
3916;SDS011;1973;50.518;7.318;2023-09-19T15:16:18;2.30;;;1.17;;
3916;SDS011;1973;50.518;7.318;2023-09-19T15:18:46;4.33;;;1.50;;
3916;SDS011;1973;50.518;7.318;2023-09-19T15:21:15;3.17;;;1.63;;
3916;SDS011;1973;50.518;7.318;2023-09-19T15:23:43;4.40;;;1.50;;
3916;SDS011;1973;50.518;7.318;2023-09-19T15:26:13;3.60;;;2.27;;
3916;SDS011;1973;50.518;7.318;2023-09-19T15:28:47;2.67;;;1.27;;
3916;SDS011;1973;50.518;7.318;2023-09-19T15:31:14;6.63;;;2.03;;
3916;SDS011;1973;50.518;7.318;2023-09-19T15:33:41;2.90;;;1.40;;
3916;SDS011;1973;50.518;7.318;2023-09-19T15:36:08;2.93;;;1.40;;
3916;SDS011;1973;50.518;7.318;2023-09-19T15:41:29;3.27;;;1.63;;
3916;SDS011;1973;50.518;7.318;2023-09-19T15:43:57;5.83;;;1.53;;
3916;SDS011;1973;50.518;7.318;2023-09-19T15:46:25;4.00;;;1.20;;
3916;SDS011;1973;50.518;7.318;2023-09-19T15:48:59;3.10;;;1.63;;
3916;SDS011;1973;50.518;7.318;2023-09-19T15:51:27;2.80;;;1.20;;
3916;SDS011;1973;50.518;7.318;2023-09-19T15:53:54;6.20;;;1.90;;
3916;SDS011;1973;50.518;7.318;2023-09-19T15:56:23;5.00;;;1.73;;
3916;SDS011;1973;50.518;7.318;2023-09-19T15:58:51;2.90;;;1.20;;
3916;SDS011;1973;50.518;7.318;2023-09-19T16:01:20;4.27;;;1.90;;
3916;SDS011;1973;50.518;7.318;2023-09-19T16:03:48;2.37;;;1.30;;
3916;SDS011;1973;50.518;7.318;2023-09-19T16:06:17;5.60;;;1.70;;
3916;SDS011;1973;50.518;7.318;2023-09-19T16:08:46;2.30;;;1.13;;
3916;SDS011;1973;50.518;7.318;2023-09-19T16:11:13;6.27;;;1.50;;
3916;SDS011;1973;50.518;7.318;2023-09-19T16:13:41;2.70;;;1.20;;
3916;SDS011;1973;50.518;7.318;2023-09-19T16:16:09;4.83;;;1.40;;
3916;SDS011;1973;50.518;7.318;2023-09-19T16:18:53;3.27;;;1.50;;
3916;SDS011;1973;50.518;7.318;2023-09-19T16:21:24;5.83;;;1.53;;
3916;SDS011;1973;50.518;7.318;2023-09-19T16:23:53;4.93;;;1.60;;
3916;SDS011;1973;50.518;7.318;2023-09-19T16:26:21;3.23;;;1.50;;
3916;SDS011;1973;50.518;7.318;2023-09-19T16:28:51;3.80;;;1.13;;
3916;SDS011;1973;50.518;7.318;2023-09-19T16:31:19;3.60;;;1.53;;
3916;SDS011;1973;50.518;7.318;2023-09-19T16:33:46;4.83;;;1.20;;
3916;SDS011;1973;50.518;7.318;2023-09-19T16:36:14;5.20;;;1.83;;